createdAt,value
2018-07-04T00:01:45.571Z,96864.89
2018-07-04T00:04:32.334Z,96856.05
2018-07-04T00:07:18.790Z,96854.20
2018-07-04T00:10:05.111Z,96850.86
2018-07-04T00:12:51.503Z,96847.58
2018-07-04T00:15:38.115Z,96848.41
2018-07-04T00:18:24.511Z,96844.70
2018-07-04T00:21:11.131Z,96845.53
2018-07-04T00:23:57.595Z,96846.71
2018-07-04T00:26:44.035Z,96846.13
2018-07-04T00:29:30.479Z,96839.73
2018-07-04T00:32:16.863Z,96838.58
2018-07-04T00:35:03.272Z,96838.75
2018-07-04T00:37:50.099Z,96838.92
2018-07-04T00:40:36.647Z,96837.08
2018-07-04T00:43:23.740Z,96837.16
2018-07-04T00:46:10.500Z,96836.97
2018-07-04T00:48:56.890Z,96843.20
2018-07-04T00:51:43.295Z,96838.20
2018-07-04T00:54:29.627Z,96836.81
2018-07-04T00:57:16.879Z,96846.03
2018-07-04T01:00:03.458Z,96838.82
2018-07-04T01:02:49.835Z,96846.53
2018-07-04T01:05:36.235Z,96838.64
2018-07-04T01:08:22.578Z,96844.73
2018-07-04T01:11:09.073Z,96846.89
2018-07-04T01:13:55.479Z,96839.05
2018-07-04T01:16:41.875Z,96847.11
2018-07-04T01:19:28.263Z,96846.94
2018-07-04T01:22:14.642Z,96841.45
2018-07-04T01:25:00.986Z,96845.98
2018-07-04T01:27:47.393Z,96837.12
2018-07-04T01:30:33.731Z,96835.89
2018-07-04T01:33:20.067Z,96839.61
2018-07-04T01:36:06.533Z,96840.17
2018-07-04T01:38:52.954Z,96833.75
2018-07-04T01:41:39.638Z,96840.11
2018-07-04T01:44:25.987Z,96836.98
2018-07-04T01:47:12.468Z,96835.70
2018-07-04T01:49:59.227Z,96833.06
2018-07-04T01:52:45.641Z,96828.62
2018-07-04T01:55:32.088Z,96831.05
2018-07-04T01:58:18.454Z,96829.50
2018-07-04T02:01:04.858Z,96829.87
2018-07-04T02:03:51.255Z,96826.03
2018-07-04T02:06:37.711Z,96825.48
2018-07-04T02:09:24.083Z,96825.20
2018-07-04T02:12:10.607Z,96830.28
2018-07-04T02:14:57.175Z,96832.38
2018-07-04T02:17:43.605Z,96829.11
2018-07-04T02:20:30.252Z,96831.70
2018-07-04T02:23:17.063Z,96825.44
2018-07-04T02:26:03.466Z,96827.09
2018-07-04T02:28:49.979Z,96828.27
2018-07-04T02:31:36.587Z,96827.05
2018-07-04T02:34:25.531Z,96822.52
2018-07-04T02:37:12.163Z,96821.49
2018-07-04T02:39:58.848Z,96824.20
2018-07-04T02:42:45.243Z,96825.90
2018-07-04T02:45:31.661Z,96820.19
2018-07-04T02:48:18.185Z,96817.98
2018-07-04T02:51:04.306Z,96817.17
2018-07-04T02:53:51.827Z,96810.12
2018-07-04T02:56:38.199Z,96808.57
2018-07-04T02:59:24.632Z,96810.73
2018-07-04T03:02:11.031Z,96814.66
2018-07-04T03:04:57.455Z,96811.70
2018-07-04T03:07:44.111Z,96812.28
2018-07-04T03:10:30.716Z,96812.55
2018-07-04T03:13:17.178Z,96810.41
2018-07-04T03:16:03.803Z,96809.58
2018-07-04T03:18:50.375Z,96811.32
2018-07-04T03:21:37.106Z,96810.10
2018-07-04T03:24:23.500Z,96818.25
2018-07-04T03:27:09.932Z,96810.75
2018-07-04T03:29:56.291Z,96813.72
2018-07-04T03:32:42.747Z,96814.25
2018-07-04T03:35:29.120Z,96811.73
2018-07-04T03:38:15.432Z,96818.46
2018-07-04T03:41:01.900Z,96818.02
2018-07-04T03:43:48.483Z,96820.27
2018-07-04T03:46:34.847Z,96828.70
2018-07-04T03:49:21.719Z,96816.63
2018-07-04T03:52:08.111Z,96816.88
2018-07-04T03:54:54.536Z,96824.59
2018-07-04T03:57:40.924Z,96808.37
2018-07-04T04:00:27.512Z,96807.55
2018-07-04T04:03:13.851Z,96812.34
2018-07-04T04:06:00.463Z,96814.62
2018-07-04T04:08:46.831Z,96817.59
2018-07-04T04:11:33.389Z,96817.17
2018-07-04T04:14:19.759Z,96814.37
2018-07-04T04:17:06.332Z,96816.33
2018-07-04T04:19:53.147Z,96818.73
2018-07-04T04:22:39.449Z,96828.48
2018-07-04T04:25:25.935Z,96819.64
2018-07-04T04:28:12.339Z,96819.88
2018-07-04T04:30:58.791Z,96820.05
2018-07-04T04:33:45.235Z,96819.45
2018-07-04T04:36:31.575Z,96818.09
2018-07-04T04:39:17.947Z,96816.66
2018-07-04T04:42:04.351Z,96815.34
2018-07-04T04:44:50.751Z,96817.73
2018-07-04T04:47:37.111Z,96822.23
2018-07-04T04:50:23.555Z,96825.09
2018-07-04T04:53:10.020Z,96822.72
2018-07-04T04:55:56.383Z,96827.60
2018-07-04T04:58:42.795Z,96822.37
2018-07-04T05:01:29.136Z,96825.25
2018-07-04T05:04:15.510Z,96819.89
2018-07-04T05:07:02.608Z,96829.22
2018-07-04T05:09:49.055Z,96827.31
2018-07-04T05:12:35.710Z,96818.20
2018-07-04T05:15:22.163Z,96815.72
2018-07-04T05:18:08.566Z,96817.30
2018-07-04T05:20:55.120Z,96819.14
2018-07-04T05:23:41.731Z,96821.43
2018-07-04T05:26:28.123Z,96816.23
2018-07-04T05:29:14.496Z,96814.98
2018-07-04T05:32:01.126Z,96813.61
2018-07-04T05:34:48.124Z,96813.20
2018-07-04T05:37:35.495Z,96811.07
2018-07-04T05:40:21.775Z,96819.34
2018-07-04T05:43:08.199Z,96817.39
2018-07-04T05:45:54.568Z,96808.01
2018-07-04T05:48:41.103Z,96808.83
2018-07-04T05:51:27.564Z,96805.45
2018-07-04T05:54:13.907Z,96805.86
2018-07-04T05:57:00.295Z,96802.33
2018-07-04T05:59:46.679Z,96799.86
2018-07-04T06:02:33.087Z,96798.92
2018-07-04T06:05:19.370Z,96794.43
2018-07-04T06:08:05.874Z,96802.36
2018-07-04T06:10:52.387Z,96803.17
2018-07-04T06:13:38.832Z,96799.55
2018-07-04T06:16:25.659Z,96793.88
2018-07-04T06:19:12.313Z,96789.09
2018-07-04T06:21:58.607Z,96793.39
2018-07-04T06:24:45.463Z,96786.70
2018-07-04T06:27:32.192Z,96792.95
2018-07-04T06:30:18.522Z,96784.98
2018-07-04T06:33:04.942Z,96792.41
2018-07-04T06:35:51.458Z,96784.39
2018-07-04T06:38:25.481Z,96785.67
2018-07-04T06:40:53.351Z,96788.06
2018-07-04T06:43:21.143Z,96790.67
2018-07-04T06:45:48.915Z,96783.89
2018-07-04T06:48:16.988Z,96786.71
2018-07-04T06:50:44.867Z,96787.69
2018-07-04T06:53:12.655Z,96789.66
2018-07-04T06:55:40.734Z,96798.63
2018-07-04T06:58:09.295Z,96792.45
2018-07-04T07:00:37.070Z,96794.75
2018-07-04T07:03:17.188Z,96794.00
2018-07-04T07:06:03.867Z,96795.41
2018-07-04T07:08:50.244Z,96794.02
2018-07-04T07:11:36.660Z,96799.90
2018-07-04T07:14:23.325Z,96801.83
2018-07-04T07:17:09.667Z,96800.57
2018-07-04T07:19:56.047Z,96801.35
2018-07-04T07:22:43.191Z,96797.09
2018-07-04T07:25:29.583Z,96801.16
2018-07-04T07:28:16.127Z,96800.45
2018-07-04T07:31:02.425Z,96805.11
2018-07-04T07:33:49.080Z,96803.22
2018-07-04T07:36:35.403Z,96798.84
2018-07-04T07:39:22.383Z,96798.04
2018-07-04T07:42:08.759Z,96804.02
2018-07-04T07:44:55.229Z,96800.43
2018-07-04T07:47:41.600Z,96800.77
2018-07-04T07:50:28.303Z,96799.70
2018-07-04T07:53:14.682Z,96794.78
2018-07-04T07:56:01.047Z,96798.17
2018-07-04T07:58:47.938Z,96796.72
2018-07-04T08:01:34.232Z,96803.31
2018-07-04T08:04:20.563Z,96801.88
2018-07-04T08:07:07.295Z,96801.05
2018-07-04T08:09:53.667Z,96804.97
2018-07-04T08:12:40.031Z,96804.20
2018-07-04T08:15:26.431Z,96810.44
2018-07-04T08:18:12.891Z,96808.74
2018-07-04T08:20:59.315Z,96795.92
2018-07-04T08:23:45.568Z,96798.38
2018-07-04T08:26:31.827Z,96802.81
2018-07-04T08:29:18.211Z,96805.80
2018-07-04T08:32:04.696Z,96800.02
2018-07-04T08:34:51.275Z,96809.95
2018-07-04T08:37:37.549Z,96805.56
2018-07-04T08:40:23.799Z,96808.66
2018-07-04T08:43:10.043Z,96811.31
2018-07-04T08:45:56.516Z,96808.00
2018-07-04T08:48:42.829Z,96815.89
2018-07-04T08:51:29.199Z,96812.44
2018-07-04T08:54:15.652Z,96819.55
2018-07-04T08:57:02.146Z,96832.31
2018-07-04T08:59:48.647Z,96842.84
2018-07-04T09:02:35.335Z,96837.22
2018-07-04T09:05:21.743Z,96837.28
2018-07-04T09:08:08.171Z,96839.89
2018-07-04T09:10:54.583Z,96839.62
2018-07-04T09:13:41.115Z,96837.66
2018-07-04T09:16:27.504Z,96842.94
2018-07-04T09:19:13.841Z,96850.70
2018-07-04T09:22:00.159Z,96857.58
2018-07-04T09:24:46.571Z,96859.47
2018-07-04T09:27:32.927Z,96855.52
2018-07-04T09:30:19.863Z,96861.05
2018-07-04T09:33:06.479Z,96871.38
2018-07-04T09:35:52.856Z,96880.17
2018-07-04T09:38:39.822Z,96888.70
2018-07-04T09:41:26.448Z,96898.43
2018-07-04T09:44:12.819Z,96914.09
2018-07-04T09:46:59.410Z,96902.58
2018-07-04T09:49:45.985Z,96899.95
2018-07-04T09:52:32.268Z,96891.17
2018-07-04T09:55:19.079Z,96890.21
2018-07-04T09:58:05.258Z,96887.53
2018-07-04T10:00:57.176Z,96876.75
2018-07-04T10:03:44.363Z,96883.97
2018-07-04T10:06:30.779Z,96894.59
2018-07-04T10:09:17.159Z,96896.80
2018-07-04T10:12:03.574Z,96902.08
2018-07-04T10:14:50.108Z,96898.95
2018-07-04T10:17:36.515Z,96898.53
2018-07-04T10:20:23.078Z,96885.30
2018-07-04T10:23:09.719Z,96881.59
2018-07-04T10:25:56.061Z,96878.14
2018-07-04T10:28:42.543Z,96870.05
2018-07-04T10:31:28.819Z,96866.05
2018-07-04T10:34:15.040Z,96859.84
2018-07-04T10:37:01.423Z,96859.88
2018-07-04T10:39:48.703Z,96865.00
2018-07-04T10:42:35.468Z,96854.67
2018-07-04T10:45:21.715Z,96852.66
2018-07-04T10:48:08.148Z,96846.98
2018-07-04T10:50:54.560Z,96853.77
2018-07-04T10:53:41.036Z,96848.23
2018-07-04T10:56:27.423Z,96841.36
2018-07-04T10:59:13.694Z,96829.77
2018-07-04T11:02:00.719Z,96822.61
2018-07-04T11:04:47.291Z,96819.86
2018-07-04T11:07:33.723Z,96827.49
2018-07-04T11:10:20.199Z,96826.25
2018-07-04T11:13:06.827Z,96811.75
2018-07-04T11:15:53.148Z,96808.81
2018-07-04T11:18:39.551Z,96801.16
2018-07-04T11:21:26.131Z,96805.03
2018-07-04T11:24:12.667Z,96799.67
2018-07-04T11:26:58.987Z,96798.14
2018-07-04T11:29:45.299Z,96802.21
2018-07-04T11:32:31.879Z,96794.97
2018-07-04T11:35:18.323Z,96798.31
2018-07-04T11:38:04.786Z,96807.37
2018-07-04T11:40:51.244Z,96797.77
2018-07-04T11:43:37.907Z,96787.77
2018-07-04T11:46:11.823Z,96783.94
2018-07-04T11:48:39.585Z,96775.27
2018-07-04T11:51:07.475Z,96775.53
2018-07-04T11:53:35.654Z,96774.04
2018-07-04T11:56:03.454Z,96777.16
2018-07-04T11:58:31.220Z,96793.76
2018-07-04T12:00:59.004Z,96804.75
2018-07-04T12:03:26.776Z,96816.55
2018-07-04T12:06:06.919Z,96819.91
2018-07-04T12:08:41.128Z,96824.73
2018-07-04T12:11:08.912Z,96832.16
2018-07-04T12:13:36.899Z,96834.03
2018-07-04T12:16:04.686Z,96836.76
2018-07-04T12:18:32.455Z,96840.53
2018-07-04T12:21:00.454Z,96836.23
2018-07-04T12:23:28.191Z,96824.85
2018-07-04T12:25:55.971Z,96836.23
2018-07-04T12:28:23.743Z,96834.27
2018-07-04T12:30:51.535Z,96820.27
2018-07-04T12:33:19.407Z,96815.09
2018-07-04T12:35:47.192Z,96813.21
2018-07-04T12:38:14.960Z,96807.97
2018-07-04T12:40:42.722Z,96816.59
2018-07-04T12:43:10.511Z,96830.51
2018-07-04T12:45:39.584Z,96846.14
2018-07-04T12:48:06.081Z,96870.75
2018-07-04T12:50:35.055Z,96880.24
2018-07-04T12:53:02.834Z,96887.25
2018-07-04T12:55:44.104Z,96895.25
2018-07-04T12:58:30.547Z,96903.25
2018-07-04T13:01:17.315Z,96900.98
2018-07-04T13:04:03.752Z,96896.38
2018-07-04T13:06:50.245Z,96894.53
2018-07-04T13:09:36.575Z,96893.64
2018-07-04T13:12:22.992Z,96880.09
2018-07-04T13:15:09.673Z,96868.86
2018-07-04T13:17:56.082Z,96853.17
2018-07-04T13:20:42.636Z,96856.05
2018-07-04T13:23:29.016Z,96854.14
2018-07-04T13:26:15.367Z,96851.63
2018-07-04T13:29:01.827Z,96846.50
2018-07-04T13:31:48.195Z,96841.88
2018-07-04T13:34:34.604Z,96839.72
2018-07-04T13:37:21.047Z,96839.11
2018-07-04T13:40:07.627Z,96846.72
2018-07-04T13:42:53.972Z,96836.41
2018-07-04T13:45:40.863Z,96836.83
2018-07-04T13:48:27.691Z,96823.20
2018-07-04T13:51:13.968Z,96814.77
2018-07-04T13:54:00.379Z,96803.85
2018-07-04T13:56:46.940Z,96796.14
2018-07-04T13:59:33.179Z,96800.09
2018-07-04T14:02:19.767Z,96804.67
2018-07-04T14:05:06.100Z,96812.89
2018-07-04T14:07:52.992Z,96817.91
2018-07-04T14:10:39.451Z,96817.78
2018-07-04T14:13:25.723Z,96803.49
2018-07-04T14:16:12.098Z,96792.49
2018-07-04T14:18:58.479Z,96787.98
2018-07-04T14:21:44.998Z,96792.77
2018-07-04T14:24:31.364Z,96800.81
2018-07-04T14:27:17.787Z,96820.63
2018-07-04T14:30:04.168Z,96837.04
2018-07-04T14:32:50.708Z,96837.92
2018-07-04T14:35:37.392Z,96839.85
2018-07-04T14:38:23.831Z,96847.61
2018-07-04T14:41:10.196Z,96845.77
2018-07-04T14:43:56.647Z,96837.13
2018-07-04T14:46:43.014Z,96844.34
2018-07-04T14:49:29.371Z,96850.74
2018-07-04T14:52:15.767Z,96853.53
2018-07-04T14:55:02.203Z,96857.81
2018-07-04T14:57:48.779Z,96859.44
2018-07-04T15:00:35.071Z,96850.94
2018-07-04T15:03:21.511Z,96850.89
2018-07-04T15:06:08.043Z,96841.67
2018-07-04T15:08:54.430Z,96840.41
2018-07-04T15:11:40.938Z,96827.16
2018-07-04T15:14:27.511Z,96818.07
2018-07-04T15:17:14.823Z,96805.17
2018-07-04T15:20:01.295Z,96801.74
2018-07-04T15:22:47.608Z,96805.77
2018-07-04T15:25:33.966Z,96811.25
2018-07-04T15:28:20.351Z,96790.75
2018-07-04T15:31:07.055Z,96757.08
2018-07-04T15:33:53.594Z,96750.24
2018-07-04T15:36:39.926Z,96730.33
2018-07-04T15:39:26.341Z,96712.33
2018-07-04T15:42:12.711Z,96705.14
2018-07-04T15:44:59.123Z,96706.05
2018-07-04T15:47:45.507Z,96711.73
2018-07-04T15:50:31.999Z,96704.76
2018-07-04T15:53:18.467Z,96698.84
2018-07-04T15:56:05.344Z,96705.72
2018-07-04T15:58:52.043Z,96718.04
2018-07-04T16:01:38.327Z,96719.33
2018-07-04T16:04:24.651Z,96720.16
2018-07-04T16:07:11.111Z,96728.00
2018-07-04T16:09:57.544Z,96709.48
2018-07-04T16:12:44.217Z,96714.05
2018-07-04T16:15:30.907Z,96721.97
2018-07-04T16:18:17.307Z,96734.95
2018-07-04T16:21:03.703Z,96718.38
2018-07-04T16:23:50.255Z,96697.80
2018-07-04T16:26:36.652Z,96713.08
2018-07-04T16:29:23.040Z,96713.31
2018-07-04T16:32:09.411Z,96731.09
2018-07-04T16:34:55.777Z,96739.83
2018-07-04T16:37:42.135Z,96745.29
2018-07-04T16:40:28.723Z,96754.58
2018-07-04T16:43:15.517Z,96761.60
2018-07-04T16:46:01.731Z,96777.55
2018-07-04T16:48:48.322Z,96764.23
2018-07-04T16:51:34.776Z,96754.10
2018-07-04T16:54:21.179Z,96737.91
2018-07-04T16:57:07.580Z,96737.25
2018-07-04T16:59:53.974Z,96730.91
2018-07-04T17:02:40.437Z,96746.90
2018-07-04T17:05:26.923Z,96748.17
2018-07-04T17:08:13.259Z,96740.61
2018-07-04T17:10:59.626Z,96739.24
2018-07-04T17:13:46.075Z,96729.11
2018-07-04T17:16:32.994Z,96739.63
2018-07-04T17:19:19.787Z,96740.40
2018-07-04T17:22:06.199Z,96743.43
2018-07-04T17:24:52.619Z,96726.75
2018-07-04T17:27:39.051Z,96726.66
2018-07-04T17:30:25.552Z,96722.28
2018-07-04T17:33:12.435Z,96732.61
2018-07-04T17:35:58.970Z,96728.64
2018-07-04T17:38:47.372Z,96724.26
2018-07-04T17:41:33.952Z,96734.97
2018-07-04T17:44:21.341Z,96743.16
2018-07-04T17:47:07.608Z,96746.68
2018-07-04T17:49:54.088Z,96751.48
2018-07-04T17:52:40.432Z,96746.86
2018-07-04T17:55:26.646Z,96749.04
2018-07-04T17:58:12.962Z,96737.02
2018-07-04T18:00:59.180Z,96728.37
2018-07-04T18:03:45.342Z,96718.31
2018-07-04T18:06:31.667Z,96730.63
2018-07-04T18:09:20.486Z,96735.17
2018-07-04T18:12:06.893Z,96720.81
2018-07-04T18:14:53.171Z,96729.95
2018-07-04T18:17:39.510Z,96731.08
2018-07-04T18:20:25.843Z,96738.39
2018-07-04T18:23:12.096Z,96739.22
2018-07-04T18:25:58.475Z,96727.80
2018-07-04T18:28:45.088Z,96723.56
2018-07-04T18:31:31.823Z,96726.09
2018-07-04T18:34:18.183Z,96724.14
2018-07-04T18:37:04.627Z,96726.53
2018-07-04T18:39:50.986Z,96720.41
2018-07-04T18:42:37.399Z,96723.31
2018-07-04T18:45:23.803Z,96717.33
2018-07-04T18:48:10.220Z,96724.57
2018-07-04T18:50:56.698Z,96720.11
2018-07-04T18:53:43.154Z,96712.28
2018-07-04T18:56:29.434Z,96707.51
2018-07-04T18:59:15.883Z,96703.69
2018-07-04T19:02:02.247Z,96711.33
2018-07-04T19:04:48.588Z,96722.61
2018-07-04T19:07:37.039Z,96711.64
2018-07-04T19:10:23.379Z,96693.53
2018-07-04T19:13:09.943Z,96689.55
2018-07-04T19:15:57.034Z,96688.45
2018-07-04T19:18:43.847Z,96678.89
2018-07-04T19:21:30.259Z,96681.77
2018-07-04T19:24:16.625Z,96676.70
2018-07-04T19:27:03.016Z,96683.97
2018-07-04T19:29:49.379Z,96689.81
2018-07-04T19:32:35.799Z,96684.89
2018-07-04T19:35:22.207Z,96682.91
2018-07-04T19:38:08.514Z,96697.44
2018-07-04T19:40:55.044Z,96706.77
2018-07-04T19:43:41.747Z,96718.22
2018-07-04T19:46:28.378Z,96731.06
2018-07-04T19:49:14.772Z,96735.72
2018-07-04T19:52:01.112Z,96739.03
2018-07-04T19:54:47.647Z,96738.52
2018-07-04T19:57:34.027Z,96742.22
2018-07-04T20:00:20.439Z,96748.41
2018-07-04T20:03:07.239Z,96756.73
2018-07-04T20:05:53.648Z,96758.72
2018-07-04T20:08:40.016Z,96752.23
2018-07-04T20:11:26.420Z,96757.77
2018-07-04T20:14:12.753Z,96765.05
2018-07-04T20:16:59.218Z,96766.79
2018-07-04T20:19:46.128Z,96772.69
2018-07-04T20:22:32.475Z,96769.91
2018-07-04T20:25:19.059Z,96769.32
2018-07-04T20:28:06.027Z,96762.11
2018-07-04T20:30:52.799Z,96766.15
2018-07-04T20:33:39.216Z,96766.52
2018-07-04T20:36:25.607Z,96767.06
2018-07-04T20:39:11.932Z,96770.18
2018-07-04T20:41:58.532Z,96764.20
2018-07-04T20:44:44.925Z,96767.09
2018-07-04T20:47:31.343Z,96768.77
2018-07-04T20:50:17.746Z,96760.86
2018-07-04T20:53:04.923Z,96755.44
2018-07-04T20:55:51.534Z,96753.48
2018-07-04T20:58:37.827Z,96752.03
2018-07-04T21:01:24.257Z,96752.06
2018-07-04T21:04:10.647Z,96751.30
2018-07-04T21:06:57.098Z,96762.36
2018-07-04T21:09:44.064Z,96759.62
2018-07-04T21:12:30.339Z,96756.65
2018-07-04T21:15:16.696Z,96752.70
2018-07-04T21:18:03.145Z,96751.25
2018-07-04T21:20:49.490Z,96747.83
2018-07-04T21:23:35.970Z,96748.20
2018-07-04T21:26:22.495Z,96753.70
2018-07-04T21:29:08.915Z,96758.72
2018-07-04T21:31:55.356Z,96755.32
2018-07-04T21:34:41.726Z,96756.78
2018-07-04T21:37:28.502Z,96757.67
2018-07-04T21:40:14.834Z,96751.08
2018-07-04T21:43:01.276Z,96751.77
2018-07-04T21:45:47.879Z,96756.00
2018-07-04T21:48:34.233Z,96749.32
2018-07-04T21:51:20.674Z,96757.83
2018-07-04T21:54:06.998Z,96754.78
2018-07-04T21:56:53.515Z,96747.71
2018-07-04T21:59:40.118Z,96732.89
2018-07-04T22:02:26.580Z,96738.89
2018-07-04T22:05:13.063Z,96747.09
2018-07-04T22:08:00.155Z,96751.59
2018-07-04T22:10:46.879Z,96751.84
2018-07-04T22:13:33.266Z,96752.38
2018-07-04T22:16:20.175Z,96754.87
2018-07-04T22:19:06.443Z,96767.38
2018-07-04T22:21:52.831Z,96751.16
2018-07-04T22:24:39.327Z,96745.91
2018-07-04T22:27:25.719Z,96741.11
2018-07-04T22:30:12.147Z,96733.26
2018-07-04T22:32:58.420Z,96743.06
2018-07-04T22:35:44.804Z,96743.80
2018-07-04T22:38:31.499Z,96753.61
2018-07-04T22:41:18.318Z,96756.67
2018-07-04T22:44:04.739Z,96744.83
2018-07-04T22:46:50.975Z,96734.66
2018-07-04T22:49:37.387Z,96730.65
2018-07-04T22:52:23.764Z,96724.23
2018-07-04T22:55:10.059Z,96721.78
2018-07-04T22:57:56.447Z,96719.36
2018-07-04T23:00:43.235Z,96715.30
2018-07-04T23:03:29.900Z,96715.64
2018-07-04T23:06:16.958Z,96709.85
2018-07-04T23:09:03.631Z,96711.81
2018-07-04T23:11:51.075Z,96716.27
2018-07-04T23:14:37.806Z,96721.05
2018-07-04T23:17:24.187Z,96726.45
2018-07-04T23:20:10.676Z,96721.84
2018-07-04T23:22:56.931Z,96724.92
2018-07-04T23:25:43.315Z,96720.91
2018-07-04T23:28:30.089Z,96725.18
2018-07-04T23:31:16.839Z,96720.84
2018-07-04T23:34:03.344Z,96713.30
2018-07-04T23:36:49.762Z,96720.39
2018-07-04T23:39:36.159Z,96717.96
2018-07-04T23:42:22.547Z,96711.19
2018-07-04T23:45:09.193Z,96709.77
2018-07-04T23:47:55.531Z,96710.59
2018-07-04T23:50:41.869Z,96705.66
2018-07-04T23:53:28.347Z,96695.37
2018-07-04T23:56:14.767Z,96703.36
2018-07-04T23:59:01.155Z,96703.61
